Time;durP1;ratioP1;P1;durP2;ratioP2;P2;SDS_P1;SDS_P2;PMS_P1;PMS_P2;Temp;Humidity;BMP_temperature;BMP_pressure;BME280_temperature;BME280_humidity;BME280_pressure;Samples;Min_cycle;Max_cycle;Signal;HPM_P1;HPM_P2
2021/12/06 00:01:57;;;;;;;22.00;15.18;;;2.10;99.90;;;;;;5069982;28;20061;-66
2021/12/06 00:04:26;;;;;;;24.15;15.35;;;2.10;99.90;;;;;;5068660;28;20049;-66
2021/12/06 00:07:00;;;;;;;23.33;15.35;;;2.10;99.90;;;;;;5068978;28;20063;-66
2021/12/06 00:09:27;;;;;;;27.40;15.02;;;2.10;99.90;;;;;;5050261;28;20071;-66
2021/12/06 00:11:56;;;;;;;20.90;14.38;;;2.10;99.90;;;;;;5053635;28;20053;-66
2021/12/06 00:14:29;;;;;;;24.60;15.13;;;2.10;99.90;;;;;;5066343;28;20483;-66
2021/12/06 00:17:01;;;;;;;22.63;14.95;;;2.10;99.90;;;;;;5067918;28;20041;-67
2021/12/06 00:19:27;;;;;;;23.40;15.07;;;2.10;99.90;;;;;;5069808;28;20059;-66
2021/12/06 00:21:54;;;;;;;21.60;14.30;;;2.10;99.90;;;;;;5069463;28;20144;-66
2021/12/06 00:24:19;;;;;;;25.58;15.43;;;2.10;99.90;;;;;;5067939;28;20052;-66
2021/12/06 00:26:45;;;;;;;23.00;15.18;;;2.10;99.90;;;;;;5068076;28;20154;-66
2021/12/06 00:29:12;;;;;;;21.25;13.98;;;2.10;99.90;;;;;;5069836;28;20380;-66
2021/12/06 00:31:38;;;;;;;24.30;15.93;;;2.10;99.90;;;;;;5068829;28;20074;-66
2021/12/06 00:34:08;;;;;;;23.38;15.75;;;2.10;99.90;;;;;;5069796;28;20059;-66
2021/12/06 00:36:37;;;;;;;23.23;14.18;;;2.10;99.90;;;;;;5068201;28;20083;-66
2021/12/06 00:39:06;;;;;;;24.35;15.57;;;2.20;99.90;;;;;;5068057;28;20490;-66
2021/12/06 00:41:32;;;;;;;24.17;15.02;;;2.20;99.90;;;;;;5068617;28;20056;-66
2021/12/06 00:43:59;;;;;;;26.13;15.75;;;2.20;99.90;;;;;;5068630;28;20052;-66
2021/12/06 00:46:25;;;;;;;26.33;16.27;;;2.20;99.90;;;;;;5069157;28;20384;-66
2021/12/06 00:48:51;;;;;;;23.65;15.23;;;2.10;99.90;;;;;;5072037;28;20098;-66
2021/12/06 00:51:17;;;;;;;27.08;15.45;;;2.10;99.90;;;;;;5072532;28;20502;-67
2021/12/06 00:53:44;;;;;;;27.13;15.90;;;2.10;99.90;;;;;;5071231;28;20502;-66
2021/12/06 00:56:10;;;;;;;23.30;15.68;;;2.20;99.90;;;;;;5071680;28;20039;-66
2021/12/06 00:58:35;;;;;;;26.33;16.90;;;2.10;99.90;;;;;;5070963;28;20870;-66
2021/12/06 01:01:03;;;;;;;33.70;19.77;;;2.10;99.90;;;;;;5071404;28;20117;-66
2021/12/06 01:03:33;;;;;;;25.60;15.93;;;2.10;99.90;;;;;;5071633;28;20403;-66
2021/12/06 01:05:58;;;;;;;26.02;15.50;;;2.10;99.90;;;;;;5070920;28;20076;-66
2021/12/06 01:08:24;;;;;;;25.60;16.73;;;2.10;99.90;;;;;;5071521;28;20563;-66
2021/12/06 01:10:51;;;;;;;27.08;15.75;;;2.00;99.90;;;;;;5071280;28;20059;-66
2021/12/06 01:13:17;;;;;;;25.08;15.80;;;2.10;99.90;;;;;;5070864;28;20131;-66
2021/12/06 01:15:43;;;;;;;27.25;16.27;;;2.10;99.90;;;;;;5071414;28;20048;-66
2021/12/06 01:18:13;;;;;;;23.38;15.35;;;2.10;99.90;;;;;;5072265;28;20044;-66
2021/12/06 01:20:50;;;;;;;25.13;16.38;;;2.10;99.90;;;;;;5054216;28;20560;-66
2021/12/06 01:23:19;;;;;;;25.45;16.25;;;2.10;99.90;;;;;;5051248;28;20048;-66
2021/12/06 01:25:57;;;;;;;25.40;15.32;;;2.10;99.90;;;;;;5057234;28;20045;-66
2021/12/06 01:41:26;;;;;;;27.27;17.17;;;2.20;99.90;;;;;;5070475;28;20131;-66
2021/12/06 01:44:13;;;;;;;27.08;17.13;;;2.10;99.90;;;;;;5072475;28;20083;-66
2021/12/06 01:46:52;;;;;;;22.83;15.98;;;2.10;99.90;;;;;;5072128;28;20131;-66
2021/12/06 01:49:20;;;;;;;25.10;16.38;;;2.20;99.90;;;;;;5070302;28;20053;-66
2021/12/06 01:51:47;;;;;;;22.75;15.40;;;2.20;99.90;;;;;;5071884;28;20064;-66
2021/12/06 01:54:15;;;;;;;25.15;16.00;;;2.10;99.90;;;;;;5072301;28;20048;-67
2021/12/06 01:56:41;;;;;;;25.40;16.77;;;2.10;99.90;;;;;;5069651;28;20060;-66
2021/12/06 01:59:07;;;;;;;27.45;16.95;;;2.10;99.90;;;;;;5070864;28;20063;-66
2021/12/06 02:01:34;;;;;;;27.73;17.55;;;2.10;99.90;;;;;;5071523;28;20487;-66
2021/12/06 02:04:01;;;;;;;26.13;15.38;;;2.10;99.90;;;;;;5072203;28;20048;-66
2021/12/06 02:06:27;;;;;;;29.80;17.70;;;2.10;99.90;;;;;;5072101;28;20048;-66
2021/12/06 02:08:53;;;;;;;28.38;17.15;;;2.10;99.90;;;;;;5070905;28;20045;-66
2021/12/06 02:11:22;;;;;;;27.38;15.30;;;2.10;99.90;;;;;;5070721;28;20076;-67
2021/12/06 02:13:55;;;;;;;28.42;15.85;;;2.10;99.90;;;;;;5070236;28;20517;-66
2021/12/06 02:16:29;;;;;;;28.00;16.10;;;2.10;99.90;;;;;;5069829;28;20113;-66
2021/12/06 02:19:02;;;;;;;29.20;16.90;;;2.10;99.90;;;;;;5070636;28;20360;-66
2021/12/06 02:21:32;;;;;;;36.00;20.42;;;2.10;99.90;;;;;;5070509;28;20040;-66
2021/12/06 02:23:59;;;;;;;27.52;16.63;;;2.10;99.90;;;;;;5069662;28;20102;-66
2021/12/06 02:26:25;;;;;;;26.20;17.02;;;2.10;99.90;;;;;;5070378;28;20052;-66
2021/12/06 02:28:52;;;;;;;34.28;18.02;;;2.00;99.90;;;;;;5070013;28;20518;-66
2021/12/06 02:31:20;;;;;;;29.30;16.60;;;2.00;99.90;;;;;;5069517;28;20074;-66
2021/12/06 02:33:48;;;;;;;32.53;19.33;;;2.10;99.90;;;;;;5071206;28;20044;-66
2021/12/06 02:36:16;;;;;;;29.55;17.70;;;2.10;99.90;;;;;;5071640;28;20490;-66
2021/12/06 02:38:42;;;;;;;29.27;18.33;;;2.10;99.90;;;;;;5069304;28;20072;-66
2021/12/06 02:41:09;;;;;;;31.42;18.27;;;2.00;99.90;;;;;;5071642;28;20072;-66
2021/12/06 02:43:36;;;;;;;33.17;18.98;;;2.10;99.90;;;;;;5070101;28;20059;-66
2021/12/06 02:46:03;;;;;;;31.67;18.70;;;2.00;99.90;;;;;;5070658;28;20076;-66
2021/12/06 02:48:28;;;;;;;31.75;17.38;;;2.00;99.90;;;;;;5068118;28;20227;-66
2021/12/06 02:50:57;;;;;;;28.13;16.27;;;2.00;99.90;;;;;;5059678;28;20131;-66
2021/12/06 02:53:25;;;;;;;30.83;18.00;;;2.10;99.90;;;;;;5051208;28;20077;-66
2021/12/06 02:55:53;;;;;;;34.85;19.10;;;2.00;99.90;;;;;;5049350;28;20052;-66
2021/12/06 03:01:06;;;;;;;32.90;19.08;;;2.00;99.90;;;;;;5050064;28;20068;-66
2021/12/06 03:03:32;;;;;;;37.88;18.73;;;2.00;99.90;;;;;;5049615;28;20060;-66
2021/12/06 03:05:58;;;;;;;36.35;18.75;;;2.00;99.90;;;;;;5050249;28;20044;-66
2021/12/06 03:09:01;;;;;;;34.00;19.85;;;1.90;99.90;;;;;;5049842;28;20049;-66
2021/12/06 03:11:31;;;;;;;35.78;18.38;;;2.00;99.90;;;;;;5045499;28;20063;-66
2021/12/06 03:13:57;;;;;;;33.70;17.42;;;2.00;99.90;;;;;;5048797;28;20392;-66
2021/12/06 03:16:23;;;;;;;37.90;19.02;;;1.90;99.90;;;;;;5060888;28;20056;-66
2021/12/06 03:18:50;;;;;;;36.92;18.75;;;2.00;99.90;;;;;;5069394;28;20058;-66
2021/12/06 03:21:18;;;;;;;35.45;20.60;;;2.00;99.90;;;;;;5068947;28;20093;-66
2021/12/06 03:23:44;;;;;;;34.63;19.70;;;2.00;99.90;;;;;;5070590;28;20056;-66
2021/12/06 03:26:10;;;;;;;36.90;17.90;;;2.00;99.90;;;;;;5070068;28;20125;-66
2021/12/06 03:28:37;;;;;;;33.38;20.38;;;2.00;99.90;;;;;;5069285;28;20123;-66
2021/12/06 03:31:04;;;;;;;39.45;20.65;;;2.10;99.90;;;;;;5069578;28;20052;-66
2021/12/06 03:33:30;;;;;;;34.47;18.33;;;2.10;99.90;;;;;;5068080;28;20059;-66
2021/12/06 03:35:56;;;;;;;34.58;20.75;;;2.10;99.90;;;;;;5070442;28;20053;-66
2021/12/06 03:38:22;;;;;;;35.63;19.20;;;2.00;99.90;;;;;;5069209;28;20059;-66
2021/12/06 03:40:48;;;;;;;33.58;20.02;;;2.10;99.90;;;;;;5069476;28;20036;-67
2021/12/06 03:43:14;;;;;;;36.90;18.88;;;2.10;99.90;;;;;;5068959;28;20088;-66
2021/12/06 03:45:39;;;;;;;39.55;21.15;;;2.10;99.90;;;;;;5069131;28;20095;-66
2021/12/06 03:48:05;;;;;;;33.42;19.42;;;2.10;99.90;;;;;;5068252;28;20094;-66
2021/12/06 03:50:31;;;;;;;34.38;19.88;;;2.10;99.90;;;;;;5068602;28;20064;-66
2021/12/06 03:52:56;;;;;;;34.60;19.00;;;2.10;99.90;;;;;;5068673;28;20062;-66
2021/12/06 03:55:22;;;;;;;42.13;22.02;;;2.10;99.90;;;;;;5069599;28;20449;-66
2021/12/06 03:57:47;;;;;;;36.13;19.20;;;2.20;99.90;;;;;;5068724;28;20045;-66
2021/12/06 04:00:13;;;;;;;35.17;19.20;;;2.10;99.90;;;;;;5070180;28;20049;-66
2021/12/06 04:02:41;;;;;;;35.10;20.30;;;2.10;99.90;;;;;;5068241;28;20120;-66
2021/12/06 04:05:07;;;;;;;34.08;19.98;;;2.20;99.90;;;;;;5070316;28;20134;-66
2021/12/06 04:07:32;;;;;;;40.10;22.13;;;2.10;99.90;;;;;;5068741;28;20076;-66
2021/12/06 04:09:58;;;;;;;39.15;19.02;;;2.10;99.90;;;;;;5068470;28;20087;-66
2021/12/06 04:12:24;;;;;;;33.17;18.38;;;2.10;99.90;;;;;;5068868;28;20044;-66
2021/12/06 04:14:51;;;;;;;32.45;18.08;;;2.10;99.90;;;;;;5068452;28;20083;-66
2021/12/06 04:17:17;;;;;;;34.08;20.00;;;2.20;99.90;;;;;;5068094;28;20052;-66
2021/12/06 04:19:43;;;;;;;33.33;18.13;;;2.20;99.90;;;;;;5068359;28;20565;-66
2021/12/06 04:22:10;;;;;;;34.15;21.35;;;2.30;99.90;;;;;;5070955;28;20044;-66
2021/12/06 04:24:36;;;;;;;39.58;21.23;;;2.20;99.90;;;;;;5072038;28;20037;-66
2021/12/06 04:27:12;;;;;;;38.47;20.77;;;2.10;99.90;;;;;;5072931;28;20052;-66
2021/12/06 04:29:38;;;;;;;35.95;18.30;;;2.20;99.90;;;;;;5073098;28;20479;-66
2021/12/06 04:32:04;;;;;;;35.95;18.45;;;2.10;99.90;;;;;;5072494;28;20048;-66
2021/12/06 04:34:30;;;;;;;31.25;18.48;;;2.10;99.90;;;;;;5072137;28;20067;-66
2021/12/06 04:36:55;;;;;;;35.35;19.20;;;2.10;99.90;;;;;;5073285;28;20075;-66
2021/12/06 04:39:21;;;;;;;36.35;20.85;;;2.10;99.90;;;;;;5073907;28;20091;-66
2021/12/06 04:41:47;;;;;;;41.22;21.55;;;2.10;99.90;;;;;;5072329;28;20399;-66
2021/12/06 04:44:13;;;;;;;34.78;20.25;;;2.20;99.90;;;;;;5073147;28;20056;-66
2021/12/06 04:46:39;;;;;;;34.55;20.58;;;2.20;99.90;;;;;;5073444;28;20036;-66
2021/12/06 04:49:06;;;;;;;33.60;19.35;;;2.20;99.90;;;;;;5072339;28;20119;-66
2021/12/06 04:51:32;;;;;;;28.08;15.93;;;2.10;99.90;;;;;;5071542;28;20566;-66
2021/12/06 04:53:58;;;;;;;33.58;19.70;;;2.10;99.90;;;;;;5073630;28;20051;-66
2021/12/06 04:56:29;;;;;;;33.20;18.73;;;2.20;99.90;;;;;;5072311;28;20131;-66
2021/12/06 04:59:20;;;;;;;37.60;18.70;;;2.10;99.90;;;;;;5071660;28;20174;-66
2021/12/06 05:01:49;;;;;;;35.95;20.27;;;2.10;99.90;;;;;;5066063;28;20060;-66
2021/12/06 05:04:20;;;;;;;34.63;21.10;;;2.20;99.90;;;;;;5073211;28;20048;-66
2021/12/06 05:06:48;;;;;;;33.35;21.40;;;2.10;99.90;;;;;;5071033;28;20045;-66
2021/12/06 05:09:23;;;;;;;34.83;19.60;;;2.10;99.90;;;;;;5073252;28;20473;-66
2021/12/06 05:11:48;;;;;;;37.30;20.50;;;2.10;99.90;;;;;;5071033;28;20812;-66
2021/12/06 05:14:15;;;;;;;37.67;21.77;;;2.20;99.90;;;;;;5071781;28;20086;-66
2021/12/06 05:16:41;;;;;;;37.45;19.45;;;2.20;99.90;;;;;;5072878;28;20068;-66
2021/12/06 05:19:07;;;;;;;38.15;20.48;;;2.20;99.90;;;;;;5066870;28;20544;-67
2021/12/06 05:21:35;;;;;;;44.28;22.35;;;2.20;99.90;;;;;;5061303;28;20052;-66
2021/12/06 05:24:00;;;;;;;49.17;24.25;;;2.10;99.90;;;;;;5060502;28;20065;-66
2021/12/06 05:26:26;;;;;;;48.35;24.08;;;2.10;99.90;;;;;;5056019;28;20051;-66
2021/12/06 05:28:56;;;;;;;41.67;21.63;;;2.10;99.90;;;;;;5072727;28;20131;-66
2021/12/06 05:31:23;;;;;;;43.97;22.67;;;2.10;99.90;;;;;;5071880;28;20136;-66
2021/12/06 05:33:53;;;;;;;48.63;24.63;;;2.10;99.90;;;;;;5070198;28;20056;-66
2021/12/06 05:36:19;;;;;;;45.05;21.88;;;2.10;99.90;;;;;;5071605;28;20569;-66
2021/12/06 05:38:45;;;;;;;48.28;23.92;;;2.10;99.90;;;;;;5070888;28;20076;-66
2021/12/06 05:41:11;;;;;;;42.47;23.30;;;2.10;99.90;;;;;;5072132;28;20040;-66
2021/12/06 05:43:37;;;;;;;44.20;22.33;;;2.20;99.90;;;;;;5070838;28;20063;-66
2021/12/06 05:46:03;;;;;;;42.75;23.52;;;2.10;99.90;;;;;;5071382;28;20052;-66
2021/12/06 05:48:29;;;;;;;47.22;22.85;;;2.10;99.90;;;;;;5071498;28;20135;-67
2021/12/06 05:50:55;;;;;;;43.80;23.67;;;2.10;99.90;;;;;;5071358;28;20123;-66
2021/12/06 05:53:22;;;;;;;40.20;20.05;;;2.20;99.90;;;;;;5072011;28;20499;-66
2021/12/06 05:55:48;;;;;;;42.63;21.65;;;2.20;99.90;;;;;;5070077;28;20052;-66
2021/12/06 05:58:16;;;;;;;49.78;22.98;;;2.20;99.90;;;;;;5067798;28;20055;-66
2021/12/06 06:00:43;;;;;;;49.72;23.25;;;2.20;99.90;;;;;;5059414;28;20058;-67
2021/12/06 06:03:09;;;;;;;44.33;21.25;;;2.20;99.90;;;;;;5070862;28;20047;-66
2021/12/06 06:05:36;;;;;;;43.67;20.63;;;2.30;99.90;;;;;;5063419;28;20033;-66
2021/12/06 06:08:03;;;;;;;52.10;24.77;;;2.20;99.90;;;;;;5051328;28;20880;-67
2021/12/06 06:10:33;;;;;;;48.83;23.67;;;2.20;99.90;;;;;;5050713;28;20037;-67
2021/12/06 06:13:00;;;;;;;53.50;27.40;;;2.20;99.90;;;;;;5056657;28;20491;-66
2021/12/06 06:15:28;;;;;;;48.20;24.15;;;2.20;99.90;;;;;;5057447;28;20397;-66
2021/12/06 06:17:54;;;;;;;50.90;24.50;;;2.10;99.90;;;;;;5061475;28;20119;-66
2021/12/06 06:20:24;;;;;;;44.28;22.30;;;2.10;99.90;;;;;;5051954;28;20128;-66
2021/12/06 06:22:50;;;;;;;54.10;26.90;;;2.10;99.90;;;;;;5049484;28;20043;-66
2021/12/06 06:25:17;;;;;;;44.60;22.27;;;2.20;99.90;;;;;;5050500;28;20045;-66
2021/12/06 06:27:44;;;;;;;43.65;22.02;;;2.10;99.90;;;;;;5050415;28;20063;-66
2021/12/06 06:30:12;;;;;;;45.15;22.65;;;2.10;99.90;;;;;;5049923;28;20195;-66
2021/12/06 06:32:38;;;;;;;48.40;23.17;;;2.10;99.90;;;;;;5049874;28;20522;-66
2021/12/06 06:35:04;;;;;;;45.03;23.60;;;2.10;99.90;;;;;;5041649;28;20041;-66
2021/12/06 06:37:31;;;;;;;47.33;21.70;;;2.10;99.90;;;;;;5059092;28;20067;-66
2021/12/06 06:39:57;;;;;;;49.95;24.63;;;2.10;99.90;;;;;;5059248;28;20048;-66
2021/12/06 06:42:23;;;;;;;52.78;24.85;;;2.10;99.90;;;;;;5052651;28;20053;-66
2021/12/06 06:44:53;;;;;;;47.30;22.42;;;2.10;99.90;;;;;;5056128;28;20048;-66
2021/12/06 06:47:19;;;;;;;51.13;22.30;;;2.00;99.90;;;;;;5057118;28;20044;-66
2021/12/06 06:49:45;;;;;;;54.28;22.75;;;2.10;99.90;;;;;;5062454;28;20055;-66
2021/12/06 06:52:11;;;;;;;47.08;22.33;;;2.10;99.90;;;;;;5053507;28;20068;-66
2021/12/06 06:54:36;;;;;;;50.38;23.75;;;2.00;99.90;;;;;;5051024;28;20052;-66
2021/12/06 06:57:03;;;;;;;44.03;21.60;;;2.00;99.90;;;;;;5050154;28;20139;-66
2021/12/06 06:59:29;;;;;;;45.42;21.95;;;2.00;99.90;;;;;;5053552;28;20087;-67
2021/12/06 07:01:54;;;;;;;51.53;23.17;;;2.00;99.90;;;;;;5056363;28;20056;-66
2021/12/06 07:04:21;;;;;;;52.55;23.77;;;2.00;99.90;;;;;;5060798;28;20846;-66
2021/12/06 07:06:46;;;;;;;44.20;21.02;;;2.00;99.90;;;;;;5070855;28;20045;-66
2021/12/06 07:09:12;;;;;;;46.33;23.00;;;2.00;99.90;;;;;;5071003;28;20445;-66
2021/12/06 07:11:38;;;;;;;53.90;25.98;;;2.00;99.90;;;;;;5051521;28;20057;-66
2021/12/06 07:14:04;;;;;;;51.97;22.90;;;1.90;99.90;;;;;;5063935;28;20056;-66
2021/12/06 07:16:29;;;;;;;48.78;22.95;;;1.90;99.90;;;;;;5059923;28;20079;-66
2021/12/06 07:18:57;;;;;;;49.22;23.77;;;1.90;99.90;;;;;;5068555;28;20055;-66
2021/12/06 07:21:22;;;;;;;55.70;24.13;;;1.90;99.90;;;;;;5069113;28;20040;-66
2021/12/06 07:23:49;;;;;;;45.45;22.95;;;1.90;99.90;;;;;;5070368;28;20049;-66
2021/12/06 07:26:17;;;;;;;48.83;21.85;;;1.90;99.90;;;;;;5068562;28;20407;-66
2021/12/06 07:28:44;;;;;;;41.70;22.00;;;1.90;99.90;;;;;;5068867;28;20093;-66
2021/12/06 07:31:14;;;;;;;41.50;20.90;;;1.90;99.90;;;;;;5069212;28;20052;-66
2021/12/06 07:33:41;;;;;;;42.20;20.77;;;2.00;99.90;;;;;;5068241;28;20080;-67
2021/12/06 07:36:07;;;;;;;45.50;22.95;;;1.90;99.90;;;;;;5069314;28;20048;-66
2021/12/06 07:38:35;;;;;;;36.90;18.42;;;1.90;99.90;;;;;;5069165;28;20048;-67
2021/12/06 07:41:01;;;;;;;41.40;18.60;;;2.00;99.90;;;;;;5069721;28;20040;-66
2021/12/06 07:43:27;;;;;;;40.45;20.58;;;2.00;99.90;;;;;;5069187;28;20045;-66
2021/12/06 07:45:53;;;;;;;41.20;20.73;;;2.00;99.90;;;;;;5058491;28;20051;-66
2021/12/06 07:48:19;;;;;;;38.60;19.55;;;2.00;99.90;;;;;;5056055;28;20393;-66
2021/12/06 07:50:45;;;;;;;38.88;20.13;;;2.00;99.90;;;;;;5057450;28;20120;-66
2021/12/06 07:53:11;;;;;;;43.47;19.95;;;2.00;99.90;;;;;;5059124;28;20147;-66
2021/12/06 07:55:37;;;;;;;44.78;20.27;;;2.10;99.90;;;;;;5057109;28;20415;-66
2021/12/06 07:58:06;;;;;;;44.67;19.75;;;2.10;99.90;;;;;;5065888;28;20457;-66
2021/12/06 08:00:34;;;;;;;39.90;20.92;;;2.00;99.90;;;;;;5046794;28;20041;-67
2021/12/06 08:03:01;;;;;;;36.80;18.45;;;2.10;99.90;;;;;;5053568;28;20080;-66
2021/12/06 08:05:33;;;;;;;44.25;22.27;;;2.10;99.90;;;;;;5054549;28;20140;-67
2021/12/06 08:08:27;;;;;;;51.08;23.20;;;2.00;99.90;;;;;;5054895;28;20491;-67
2021/12/06 08:10:55;;;;;;;41.53;21.65;;;2.10;99.90;;;;;;5057313;28;20517;-66
2021/12/06 08:13:24;;;;;;;43.95;19.88;;;2.10;99.90;;;;;;5068983;28;20084;-66
2021/12/06 08:15:52;;;;;;;45.35;21.13;;;2.10;99.90;;;;;;5067686;28;20127;-67
2021/12/06 08:18:17;;;;;;;49.60;23.95;;;2.10;99.90;;;;;;5070203;28;20056;-66
2021/12/06 08:20:43;;;;;;;44.85;20.95;;;2.20;99.90;;;;;;5055052;28;20454;-66
2021/12/06 08:23:10;;;;;;;46.42;21.05;;;2.10;99.90;;;;;;5053418;28;20048;-66
2021/12/06 08:25:36;;;;;;;49.28;22.27;;;2.20;99.90;;;;;;5053228;28;20041;-67
2021/12/06 08:28:03;;;;;;;43.15;20.27;;;2.10;99.90;;;;;;5047303;28;20100;-66
2021/12/06 08:30:28;;;;;;;50.88;21.73;;;2.10;99.90;;;;;;5067747;28;20048;-66
2021/12/06 08:32:58;;;;;;;51.00;22.67;;;2.10;99.90;;;;;;5049987;28;20060;-66
2021/12/06 08:35:26;;;;;;;52.17;24.73;;;2.20;99.90;;;;;;5056464;28;20559;-66
2021/12/06 08:37:52;;;;;;;50.22;22.05;;;2.10;99.90;;;;;;5069376;28;20525;-66
2021/12/06 08:40:18;;;;;;;47.17;23.95;;;2.10;99.90;;;;;;5068727;28;20479;-66
2021/12/06 08:42:43;;;;;;;56.97;25.77;;;2.10;99.90;;;;;;5057976;28;20070;-66
2021/12/06 08:45:10;;;;;;;52.10;24.92;;;2.10;99.90;;;;;;5053259;28;20087;-66
2021/12/06 08:47:36;;;;;;;45.65;22.38;;;2.20;99.90;;;;;;5046178;28;20101;-66
2021/12/06 08:50:04;;;;;;;45.35;22.40;;;2.10;99.90;;;;;;5058836;28;20421;-67
2021/12/06 08:52:30;;;;;;;54.53;25.02;;;2.20;99.90;;;;;;5036010;28;20534;-70
2021/12/06 08:54:56;;;;;;;46.22;20.90;;;2.20;99.90;;;;;;5028541;28;20053;-65
2021/12/06 08:57:21;;;;;;;45.10;22.35;;;2.20;99.90;;;;;;5030032;28;20727;-68
2021/12/06 08:59:47;;;;;;;54.20;24.05;;;2.30;99.90;;;;;;5037462;28;20136;-66
2021/12/06 09:02:14;;;;;;;53.90;21.52;;;2.30;99.90;;;;;;5049284;28;20056;-64
2021/12/06 09:04:40;;;;;;;50.20;24.52;;;2.30;99.90;;;;;;5048091;28;20144;-65
2021/12/06 09:07:11;;;;;;;45.83;21.73;;;2.30;99.90;;;;;;5050301;28;20528;-64
2021/12/06 09:09:45;;;;;;;50.88;19.50;;;2.40;99.90;;;;;;5051680;28;20484;-65
2021/12/06 09:12:11;;;;;;;48.60;22.10;;;2.30;99.90;;;;;;5053539;28;20514;-64
2021/12/06 09:14:37;;;;;;;47.15;22.17;;;2.40;99.90;;;;;;5052202;28;20057;-65
2021/12/06 09:17:02;;;;;;;48.35;21.48;;;2.40;99.90;;;;;;5055284;28;20044;-65
2021/12/06 09:19:28;;;;;;;44.33;20.27;;;2.40;99.90;;;;;;5052811;28;21103;-65
2021/12/06 09:21:54;;;;;;;51.05;20.98;;;2.50;99.90;;;;;;5054955;28;20045;-66
2021/12/06 09:24:20;;;;;;;51.30;24.00;;;2.40;99.90;;;;;;5054008;28;20045;-65
2021/12/06 09:26:48;;;;;;;47.63;23.65;;;2.40;99.90;;;;;;5048317;28;20056;-65
2021/12/06 09:29:13;;;;;;;47.55;21.92;;;2.50;99.90;;;;;;5056677;28;20454;-64
2021/12/06 09:31:39;;;;;;;44.08;22.60;;;2.50;99.90;;;;;;5051555;28;20072;-65
2021/12/06 09:34:05;;;;;;;43.40;21.40;;;2.50;99.90;;;;;;5045703;28;20048;-65
2021/12/06 09:36:33;;;;;;;43.60;22.70;;;2.50;99.90;;;;;;5042494;28;20053;-64
2021/12/06 09:38:59;;;;;;;38.75;19.52;;;2.60;99.90;;;;;;5051078;28;20053;-64
2021/12/06 09:41:27;;;;;;;39.88;18.77;;;2.60;99.90;;;;;;5050288;28;20053;-64
2021/12/06 09:43:57;;;;;;;42.67;20.23;;;2.60;99.90;;;;;;5048680;28;20051;-65
2021/12/06 09:46:23;;;;;;;37.97;18.55;;;2.60;99.90;;;;;;5042540;28;20044;-65
2021/12/06 09:48:49;;;;;;;34.35;18.63;;;2.60;99.90;;;;;;5038330;28;20080;-64
2021/12/06 09:51:18;;;;;;;41.83;18.80;;;2.60;99.90;;;;;;5042755;28;20033;-65
2021/12/06 09:53:47;;;;;;;41.00;18.10;;;2.60;99.90;;;;;;5043707;28;20044;-65
2021/12/06 09:56:18;;;;;;;40.17;17.15;;;2.70;99.90;;;;;;5046171;28;20139;-64
2021/12/06 09:58:45;;;;;;;52.80;18.17;;;2.70;99.90;;;;;;5044718;28;20029;-65
2021/12/06 10:01:21;;;;;;;29.52;16.50;;;2.70;99.90;;;;;;5048069;28;20051;-65
2021/12/06 10:03:48;;;;;;;31.13;15.80;;;2.70;99.90;;;;;;5049200;28;20099;-65
2021/12/06 10:06:16;;;;;;;33.58;15.98;;;2.70;99.90;;;;;;5051800;28;20087;-65
2021/12/06 10:08:44;;;;;;;35.40;17.38;;;2.70;99.90;;;;;;5048838;28;20414;-65
2021/12/06 10:11:13;;;;;;;38.65;19.65;;;2.70;99.90;;;;;;5044333;28;20123;-66
2021/12/06 10:13:40;;;;;;;35.35;17.42;;;2.70;99.90;;;;;;5038462;28;20041;-66
2021/12/06 10:16:07;;;;;;;30.40;16.42;;;2.70;99.90;;;;;;5032243;28;20042;-66
2021/12/06 10:18:34;;;;;;;38.28;17.23;;;2.70;99.90;;;;;;5030927;28;20063;-66
2021/12/06 10:21:02;;;;;;;32.65;17.27;;;2.70;99.90;;;;;;5032472;28;20380;-66
2021/12/06 10:23:32;;;;;;;29.67;15.60;;;3.90;99.90;;;;;;5039549;28;20063;-69
2021/12/06 10:25:57;;;;;;;36.83;17.90;;;2.70;99.90;;;;;;5053254;28;20048;-66
2021/12/06 10:28:28;;;;;;;34.67;17.25;;;2.60;99.90;;;;;;5043393;28;20065;-67
2021/12/06 10:30:57;;;;;;;32.38;16.77;;;2.70;99.90;;;;;;5057360;28;20108;-67
2021/12/06 10:33:33;;;;;;;30.02;15.88;;;2.60;99.90;;;;;;5031184;28;20073;-66
2021/12/06 10:36:10;;;;;;;39.00;18.08;;;2.60;99.90;;;;;;5043724;28;20041;-66
2021/12/06 10:38:42;;;;;;;30.27;16.08;;;2.60;99.90;;;;;;5051368;28;20041;-67
2021/12/06 10:41:15;;;;;;;33.67;18.00;;;2.70;99.90;;;;;;5070425;28;20509;-64
2021/12/06 10:43:53;;;;;;;35.20;18.52;;;2.70;99.90;;;;;;5057426;28;20144;-65
2021/12/06 10:46:19;;;;;;;32.67;17.00;;;2.70;99.90;;;;;;5032760;28;20132;-65
2021/12/06 10:48:48;;;;;;;38.00;18.10;;;2.70;99.90;;;;;;5036611;28;20033;-64
2021/12/06 10:51:17;;;;;;;30.98;17.65;;;2.70;99.90;;;;;;5046375;28;20056;-65
2021/12/06 10:53:57;;;;;;;32.67;16.42;;;2.70;99.90;;;;;;5050989;28;20053;-65
2021/12/06 10:56:31;;;;;;;30.35;16.60;;;2.60;99.90;;;;;;5050540;28;20103;-66
2021/12/06 10:58:57;;;;;;;32.45;16.23;;;2.60;99.90;;;;;;5050955;28;20525;-67
2021/12/06 11:01:28;;;;;;;26.63;15.48;;;2.70;99.90;;;;;;5046842;28;20045;-67
2021/12/06 11:03:55;;;;;;;27.55;17.38;;;2.70;99.90;;;;;;5049422;28;20049;-67
2021/12/06 11:06:36;;;;;;;28.27;15.50;;;2.60;99.90;;;;;;5048162;28;20076;-66
2021/12/06 11:09:05;;;;;;;29.88;16.73;;;2.70;99.90;;;;;;5048267;28;20044;-67
2021/12/06 11:11:49;;;;;;;33.85;18.00;;;2.70;99.90;;;;;;5046872;28;20491;-67
2021/12/06 11:14:22;;;;;;;34.92;20.27;;;2.60;99.90;;;;;;5047276;28;20099;-67
2021/12/06 11:17:00;;;;;;;37.58;19.85;;;2.60;99.90;;;;;;5047224;28;20048;-66
2021/12/06 11:19:29;;;;;;;35.75;19.95;;;2.60;99.90;;;;;;5042870;28;20041;-66
2021/12/06 11:22:02;;;;;;;47.80;23.08;;;2.60;99.90;;;;;;5044074;28;20041;-67
2021/12/06 11:24:31;;;;;;;44.90;21.95;;;2.60;99.90;;;;;;5047396;28;20098;-65
2021/12/06 11:27:07;;;;;;;46.20;24.55;;;2.60;99.90;;;;;;5047189;28;20132;-66
2021/12/06 11:29:36;;;;;;;47.38;24.08;;;2.60;99.90;;;;;;5040714;28;20080;-65
2021/12/06 11:32:33;;;;;;;42.22;22.45;;;2.60;99.90;;;;;;5042624;28;20044;-65
2021/12/06 11:35:16;;;;;;;45.92;24.33;;;2.60;99.90;;;;;;5034395;28;20048;-65
2021/12/06 11:37:48;;;;;;;44.58;23.45;;;2.60;99.90;;;;;;5041813;28;20044;-65
2021/12/06 11:40:33;;;;;;;43.55;21.05;;;2.70;99.90;;;;;;5041320;28;20049;-65
2021/12/06 11:43:04;;;;;;;41.80;19.23;;;2.60;99.90;;;;;;5046129;28;20442;-67
2021/12/06 11:45:52;;;;;;;38.00;20.53;;;2.60;99.90;;;;;;5044947;28;20041;-68
2021/12/06 11:48:27;;;;;;;34.30;19.33;;;2.70;99.90;;;;;;5048733;28;20513;-67
2021/12/06 11:51:08;;;;;;;35.03;17.02;;;2.80;99.90;;;;;;5049155;28;20045;-67
2021/12/06 11:53:44;;;;;;;35.70;20.70;;;2.90;99.90;;;;;;5049860;28;20060;-67
2021/12/06 11:56:21;;;;;;;49.05;19.50;;;2.90;99.90;;;;;;5067578;28;20773;-67
2021/12/06 11:59:15;;;;;;;35.75;18.48;;;3.00;99.90;;;;;;5070990;28;20045;-68
2021/12/06 12:01:51;;;;;;;31.88;17.38;;;3.00;99.90;;;;;;5068014;28;20060;-68
2021/12/06 12:04:23;;;;;;;33.95;17.48;;;3.00;99.90;;;;;;5062717;28;20053;-67
2021/12/06 12:07:01;;;;;;;30.10;17.83;;;2.90;99.90;;;;;;5050182;28;20048;-67
2021/12/06 12:09:37;;;;;;;32.17;16.70;;;2.90;99.90;;;;;;5051371;28;20056;-67
2021/12/06 12:12:10;;;;;;;35.67;17.63;;;2.90;99.90;;;;;;5058865;28;20045;-67
2021/12/06 12:14:52;;;;;;;31.83;16.15;;;2.90;99.90;;;;;;5059935;28;20438;-67
2021/12/06 12:17:27;;;;;;;27.55;16.35;;;2.90;99.90;;;;;;5058303;28;20102;-68
2021/12/06 12:19:55;;;;;;;31.80;16.30;;;2.80;99.90;;;;;;5053437;28;20080;-68
2021/12/06 12:22:23;;;;;;;23.55;15.25;;;2.80;99.90;;;;;;5034270;28;20133;-67
2021/12/06 12:24:53;;;;;;;30.25;15.63;;;2.80;99.90;;;;;;5028944;28;20053;-67
2021/12/06 12:27:28;;;;;;;24.58;15.95;;;2.80;99.90;;;;;;5031144;28;20052;-67
2021/12/06 12:29:59;;;;;;;28.50;14.57;;;2.80;99.90;;;;;;5030166;28;20049;-67
2021/12/06 12:32:25;;;;;;;32.85;16.50;;;2.80;99.90;;;;;;5029573;28;20057;-67
2021/12/06 12:34:52;;;;;;;30.98;16.70;;;2.80;99.90;;;;;;5028724;28;20061;-67
2021/12/06 12:37:20;;;;;;;31.02;16.65;;;2.80;99.90;;;;;;5029367;28;20488;-67
2021/12/06 12:40:04;;;;;;;28.83;16.58;;;2.90;99.90;;;;;;5029254;28;20085;-67
2021/12/06 12:42:30;;;;;;;30.92;17.00;;;2.90;99.90;;;;;;5029486;28;20132;-67
2021/12/06 12:44:59;;;;;;;29.92;17.75;;;2.90;99.90;;;;;;5034358;28;20484;-67
2021/12/06 12:47:28;;;;;;;38.65;21.05;;;2.90;99.90;;;;;;5034827;28;20057;-67
2021/12/06 12:50:01;;;;;;;37.83;17.92;;;3.00;99.90;;;;;;5062029;28;20041;-67
2021/12/06 12:52:43;;;;;;;38.20;18.58;;;3.00;99.90;;;;;;5056146;28;20068;-68
2021/12/06 12:55:17;;;;;;;36.37;18.67;;;2.90;99.90;;;;;;5037180;28;20049;-68
2021/12/06 12:57:43;;;;;;;35.85;16.65;;;3.00;99.90;;;;;;5051052;28;20049;-67
2021/12/06 13:00:21;;;;;;;34.83;17.25;;;2.90;99.90;;;;;;5052486;28;20072;-67